createdAt,value
2023-12-02T00:02:02.213Z,4.40
2023-12-02T00:04:28.911Z,4.40
2023-12-02T00:06:55.493Z,4.40
2023-12-02T00:09:22.213Z,4.40
2023-12-02T00:11:52.081Z,4.40
2023-12-02T00:14:18.731Z,4.40
2023-12-02T00:16:45.447Z,4.40
2023-12-02T00:19:12.216Z,4.40
2023-12-02T00:21:39.209Z,4.40
2023-12-02T00:24:06.294Z,4.40
2023-12-02T00:26:32.930Z,4.40
2023-12-02T00:28:59.554Z,4.40
2023-12-02T00:31:26.185Z,4.50
2023-12-02T00:33:52.833Z,4.50
2023-12-02T00:36:19.450Z,4.50
2023-12-02T00:38:46.070Z,4.40
2023-12-02T00:41:12.750Z,4.40
2023-12-02T00:43:39.443Z,4.40
2023-12-02T00:46:06.702Z,4.40
2023-12-02T00:48:33.542Z,4.40
2023-12-02T00:51:00.283Z,4.40
2023-12-02T00:53:26.995Z,4.40
2023-12-02T00:55:53.639Z,4.40
2023-12-02T00:58:27.595Z,4.40
2023-12-02T01:00:58.563Z,4.40
2023-12-02T01:03:25.428Z,4.40
2023-12-02T01:05:52.158Z,4.40
2023-12-02T01:08:18.784Z,4.40
2023-12-02T01:10:45.420Z,4.40
2023-12-02T01:13:12.284Z,4.40
2023-12-02T01:15:38.907Z,4.40
2023-12-02T01:18:05.866Z,4.40
2023-12-02T01:20:32.614Z,4.40
2023-12-02T01:22:59.688Z,4.30
2023-12-02T01:25:26.332Z,4.30
2023-12-02T01:27:52.969Z,4.30
2023-12-02T01:30:19.724Z,4.30
2023-12-02T01:32:46.426Z,4.30
2023-12-02T01:35:13.108Z,4.30
2023-12-02T01:37:39.706Z,4.30
2023-12-02T01:40:06.996Z,4.30
2023-12-02T01:42:33.679Z,4.30
2023-12-02T01:45:00.390Z,4.30
2023-12-02T01:47:27.036Z,4.30
2023-12-02T01:49:55.062Z,4.30
2023-12-02T01:52:21.727Z,4.30
2023-12-02T01:54:48.510Z,4.30
2023-12-02T01:57:15.398Z,4.30
2023-12-02T01:59:46.422Z,4.30
2023-12-02T02:02:13.052Z,4.30
2023-12-02T02:04:39.800Z,4.30
2023-12-02T02:07:06.704Z,4.30
2023-12-02T02:09:44.735Z,4.30
2023-12-02T02:12:11.818Z,4.40
2023-12-02T02:14:38.449Z,4.40
2023-12-02T02:17:05.043Z,4.40
2023-12-02T02:19:33.240Z,4.40
2023-12-02T02:22:00.162Z,4.40
2023-12-02T02:24:26.939Z,4.40
2023-12-02T02:26:53.680Z,4.40
2023-12-02T02:29:20.517Z,4.40
2023-12-02T02:31:47.138Z,4.40
2023-12-02T02:34:13.876Z,4.40
2023-12-02T02:36:40.500Z,4.40
2023-12-02T02:39:08.736Z,4.40
2023-12-02T02:41:35.536Z,4.40
2023-12-02T02:44:02.599Z,4.40
2023-12-02T02:46:29.193Z,4.40
2023-12-02T02:48:55.866Z,4.40
2023-12-02T02:51:23.124Z,4.40
2023-12-02T02:53:49.818Z,4.40
2023-12-02T02:56:16.473Z,4.40
2023-12-02T02:58:43.134Z,4.40
2023-12-02T03:01:09.709Z,4.40
2023-12-02T03:03:36.361Z,4.40
2023-12-02T03:06:03.071Z,4.40
2023-12-02T03:08:30.001Z,4.40
2023-12-02T03:10:56.621Z,4.40
2023-12-02T03:13:23.216Z,4.40
2023-12-02T03:15:49.860Z,4.40
2023-12-02T03:18:16.602Z,4.40
2023-12-02T03:20:43.347Z,4.40
2023-12-02T03:23:10.248Z,4.40
2023-12-02T03:25:37.065Z,4.30
2023-12-02T03:28:03.712Z,4.40
2023-12-02T03:30:30.390Z,4.40
2023-12-02T03:32:57.193Z,4.40
2023-12-02T03:35:23.921Z,4.40
2023-12-02T03:37:50.585Z,4.40
2023-12-02T03:40:17.243Z,4.40
2023-12-02T03:42:43.931Z,4.40
2023-12-02T03:45:11.121Z,4.40
2023-12-02T03:47:38.184Z,4.40
2023-12-02T03:50:05.990Z,4.40
2023-12-02T03:52:32.648Z,4.40
2023-12-02T03:54:59.276Z,4.40
2023-12-02T03:57:25.944Z,4.40
2023-12-02T03:59:52.601Z,4.50
2023-12-02T04:02:19.279Z,4.40
2023-12-02T04:04:45.926Z,4.40
2023-12-02T04:07:12.683Z,4.40
2023-12-02T04:09:39.454Z,4.40
2023-12-02T04:12:06.411Z,4.40
2023-12-02T04:14:32.988Z,4.40
2023-12-02T04:16:59.569Z,4.40
2023-12-02T04:19:26.291Z,4.40
2023-12-02T04:21:52.906Z,4.40
2023-12-02T04:24:19.903Z,4.30
2023-12-02T04:26:47.962Z,4.30
2023-12-02T04:29:14.590Z,4.30
2023-12-02T04:31:41.379Z,4.30
2023-12-02T04:34:08.012Z,4.30
2023-12-02T04:36:34.693Z,4.30
2023-12-02T04:39:01.349Z,4.30
2023-12-02T04:41:27.962Z,4.30
2023-12-02T04:43:54.550Z,4.30
2023-12-02T04:46:21.467Z,4.20
2023-12-02T04:48:48.075Z,4.30
2023-12-02T04:51:14.732Z,4.30
2023-12-02T04:53:41.345Z,4.30
2023-12-02T04:56:08.407Z,4.30
2023-12-02T04:58:35.118Z,4.30
2023-12-02T05:01:01.754Z,4.30
2023-12-02T05:03:28.556Z,4.30
2023-12-02T05:05:55.327Z,4.20
2023-12-02T05:08:21.945Z,4.20
2023-12-02T05:10:48.621Z,4.20
2023-12-02T05:13:15.212Z,4.20
2023-12-02T05:15:44.576Z,4.20
2023-12-02T05:18:11.755Z,4.20
2023-12-02T05:20:38.472Z,4.30
2023-12-02T05:23:05.658Z,4.30
2023-12-02T05:25:32.230Z,4.30
2023-12-02T05:27:58.924Z,4.30
2023-12-02T05:30:25.673Z,4.30
2023-12-02T05:32:52.798Z,4.20
2023-12-02T05:35:20.121Z,4.20
2023-12-02T05:37:46.753Z,4.20
2023-12-02T05:40:13.586Z,4.20
2023-12-02T05:42:40.445Z,4.20
2023-12-02T05:45:07.766Z,4.20
2023-12-02T05:47:34.421Z,4.20
2023-12-02T05:50:01.233Z,4.20
2023-12-02T05:52:28.065Z,4.20
2023-12-02T05:54:54.643Z,4.20
2023-12-02T05:57:21.274Z,4.20
2023-12-02T05:59:47.942Z,4.20
2023-12-02T06:02:15.320Z,4.10
2023-12-02T06:04:41.998Z,4.10
2023-12-02T06:07:08.576Z,4.10
2023-12-02T06:09:35.216Z,4.10
2023-12-02T06:12:01.879Z,4.10
2023-12-02T06:14:30.219Z,4.10
2023-12-02T06:16:58.083Z,4.10
2023-12-02T06:19:24.675Z,4.10
2023-12-02T06:21:51.350Z,4.10
2023-12-02T06:24:18.228Z,4.00
2023-12-02T06:26:44.903Z,4.00
2023-12-02T06:29:11.833Z,4.00
2023-12-02T06:31:38.621Z,4.00
2023-12-02T06:34:07.929Z,4.00
2023-12-02T06:36:34.610Z,4.00
2023-12-02T06:39:01.256Z,4.00
2023-12-02T06:41:27.913Z,4.00
2023-12-02T06:43:54.507Z,4.00
2023-12-02T06:46:24.980Z,4.00
2023-12-02T06:48:51.882Z,4.00
2023-12-02T06:51:19.106Z,4.00
2023-12-02T06:53:45.744Z,4.00
2023-12-02T06:56:20.381Z,4.00
2023-12-02T06:58:47.117Z,4.00
2023-12-02T07:01:33.228Z,4.00
2023-12-02T07:04:01.429Z,4.00
2023-12-02T07:06:28.947Z,4.00
2023-12-02T07:08:56.248Z,4.00
2023-12-02T07:11:23.590Z,4.00
2023-12-02T07:13:50.553Z,4.00
2023-12-02T07:16:17.503Z,4.00
2023-12-02T07:18:44.294Z,4.00
2023-12-02T07:21:11.017Z,3.90
2023-12-02T07:23:37.720Z,3.90
2023-12-02T07:26:04.721Z,4.00
2023-12-02T07:28:31.487Z,4.00
2023-12-02T07:30:58.121Z,4.00
2023-12-02T07:33:25.211Z,4.00
2023-12-02T07:35:51.841Z,4.00
2023-12-02T07:38:18.408Z,4.10
2023-12-02T07:40:45.021Z,4.10
2023-12-02T07:43:11.652Z,4.10
2023-12-02T07:45:38.560Z,4.10
2023-12-02T07:48:06.179Z,4.10
2023-12-02T07:50:32.907Z,4.10
2023-12-02T07:52:59.985Z,4.10
2023-12-02T07:55:26.946Z,4.10
2023-12-02T07:57:54.263Z,4.10
2023-12-02T08:00:21.238Z,4.20
2023-12-02T08:02:48.366Z,4.10
2023-12-02T08:07:44.585Z,4.20
2023-12-02T08:10:11.616Z,4.10
2023-12-02T08:12:38.242Z,4.10
2023-12-02T08:15:06.488Z,4.10
2023-12-02T08:17:33.268Z,4.10
2023-12-02T08:20:00.045Z,4.10
2023-12-02T08:22:26.711Z,4.10
2023-12-02T08:24:53.833Z,4.20
2023-12-02T08:27:22.235Z,4.20
2023-12-02T08:29:48.858Z,4.20
2023-12-02T08:32:15.533Z,4.20
2023-12-02T08:34:43.173Z,4.20
2023-12-02T08:37:09.833Z,4.20
2023-12-02T08:39:36.597Z,4.20
2023-12-02T08:42:03.390Z,4.20
2023-12-02T08:44:29.989Z,4.20
2023-12-02T08:46:56.679Z,4.20
2023-12-02T08:49:23.327Z,4.20
2023-12-02T08:51:49.897Z,4.20
2023-12-02T08:54:16.578Z,4.30
2023-12-02T08:56:43.177Z,4.30
2023-12-02T08:59:09.837Z,4.30
2023-12-02T09:01:37.972Z,4.30
2023-12-02T09:04:05.889Z,4.20
2023-12-02T09:06:34.137Z,4.10
2023-12-02T09:09:00.887Z,4.00
2023-12-02T09:11:27.611Z,4.00
2023-12-02T09:13:54.425Z,4.00
2023-12-02T09:16:26.869Z,4.00
2023-12-02T09:18:53.777Z,3.90
2023-12-02T09:21:41.631Z,3.80
2023-12-02T09:24:39.581Z,3.80
2023-12-02T09:27:08.395Z,3.90
2023-12-02T09:29:41.987Z,3.90
2023-12-02T09:32:24.231Z,3.90
2023-12-02T09:35:00.785Z,3.80
2023-12-02T09:37:52.420Z,3.80
2023-12-02T09:40:48.929Z,3.90
2023-12-02T09:43:38.910Z,4.00
2023-12-02T09:46:27.204Z,4.00
2023-12-02T09:49:12.224Z,4.10
2023-12-02T09:51:44.811Z,4.20
2023-12-02T09:54:38.030Z,4.20
2023-12-02T09:57:16.550Z,4.20
2023-12-02T09:59:58.088Z,4.20
2023-12-02T10:02:50.595Z,4.20
2023-12-02T10:05:17.712Z,4.20
2023-12-02T10:08:01.559Z,4.10
2023-12-02T10:10:50.469Z,4.10
2023-12-02T10:13:33.144Z,4.10
2023-12-02T10:16:02.305Z,4.10
2023-12-02T10:18:37.530Z,4.10
2023-12-02T10:21:09.447Z,4.10
2023-12-02T10:23:41.564Z,4.20
2023-12-02T10:26:25.189Z,4.10
2023-12-02T10:29:21.450Z,4.20
2023-12-02T10:32:08.600Z,4.20
2023-12-02T10:35:02.473Z,4.10
2023-12-02T10:37:37.770Z,4.10
2023-12-02T10:40:10.302Z,4.00
2023-12-02T10:42:56.223Z,3.80
2023-12-02T10:45:24.082Z,3.90
2023-12-02T10:47:53.462Z,3.80
2023-12-02T10:50:21.700Z,3.90
2023-12-02T10:53:00.956Z,4.00
2023-12-02T10:55:31.562Z,4.10
2023-12-02T10:58:00.372Z,4.00
2023-12-02T11:00:31.344Z,4.10
2023-12-02T11:03:06.505Z,3.90
2023-12-02T11:05:51.341Z,3.80
2023-12-02T11:08:35.734Z,3.90
2023-12-02T11:11:05.970Z,4.00
2023-12-02T11:13:35.860Z,4.00
2023-12-02T11:16:22.021Z,3.90
2023-12-02T11:19:07.317Z,4.00
2023-12-02T11:22:07.626Z,4.20
2023-12-02T11:24:44.453Z,4.10
2023-12-02T11:27:34.238Z,4.10
2023-12-02T11:30:14.030Z,4.10
2023-12-02T11:33:13.423Z,4.10
2023-12-02T11:35:58.353Z,4.20
2023-12-02T11:38:31.727Z,4.30
2023-12-02T11:41:05.204Z,4.40
2023-12-02T11:43:50.103Z,4.40
2023-12-02T11:46:21.729Z,4.40
2023-12-02T11:49:21.968Z,4.40
2023-12-02T11:52:01.689Z,4.30
2023-12-02T11:55:01.216Z,4.00
2023-12-02T11:57:50.594Z,4.00
2023-12-02T12:00:35.393Z,4.10
2023-12-02T12:03:20.533Z,4.00
2023-12-02T12:06:07.451Z,4.00
2023-12-02T12:09:02.570Z,3.80
2023-12-02T12:11:31.579Z,3.80
2023-12-02T12:13:59.130Z,3.70
2023-12-02T12:16:32.738Z,3.60
2023-12-02T12:19:04.166Z,3.50
2023-12-02T12:21:30.777Z,3.40
2023-12-02T12:23:57.502Z,3.30
2023-12-02T12:26:24.263Z,3.40
2023-12-02T12:28:50.956Z,3.40
2023-12-02T12:31:18.643Z,3.30
2023-12-02T12:33:50.791Z,3.10
2023-12-02T12:36:32.359Z,3.10
2023-12-02T12:39:00.711Z,2.80
2023-12-02T12:41:28.397Z,2.70
2023-12-02T12:43:55.258Z,2.70
2023-12-02T12:46:22.352Z,2.90
2023-12-02T12:48:52.780Z,3.00
2023-12-02T12:51:20.689Z,2.90
2023-12-02T12:54:02.024Z,3.00
2023-12-02T12:56:46.908Z,3.00
2023-12-02T12:59:18.689Z,2.90
2023-12-02T13:01:57.183Z,2.80
2023-12-02T13:05:00.118Z,2.70
2023-12-02T13:07:40.279Z,2.50
2023-12-02T13:10:09.303Z,2.60
2023-12-02T13:12:39.161Z,2.50
2023-12-02T13:15:09.688Z,2.60
2023-12-02T13:17:42.688Z,2.50
2023-12-02T13:20:09.865Z,2.50
2023-12-02T13:22:36.820Z,2.50
2023-12-02T13:25:11.618Z,2.50
2023-12-02T13:28:05.955Z,2.50
2023-12-02T13:30:36.620Z,2.40
2023-12-02T13:33:21.485Z,2.50
2023-12-02T13:36:27.963Z,2.60
2023-12-02T13:39:09.331Z,2.70
2023-12-02T13:41:47.378Z,2.70
2023-12-02T13:44:17.724Z,2.70
2023-12-02T13:47:06.285Z,2.70
2023-12-02T13:49:39.887Z,2.60
2023-12-02T13:52:39.802Z,2.40
2023-12-02T13:55:22.138Z,2.40
2023-12-02T13:58:15.905Z,2.40
2023-12-02T14:00:57.646Z,2.40
2023-12-02T14:03:36.695Z,2.40
2023-12-02T14:06:11.215Z,2.40
2023-12-02T14:08:38.635Z,2.40
2023-12-02T14:11:08.788Z,2.50
2023-12-02T14:13:59.401Z,2.60
2023-12-02T14:17:03.558Z,2.60
2023-12-02T14:19:58.825Z,2.50
2023-12-02T14:22:39.089Z,2.50
2023-12-02T14:25:22.100Z,2.60
2023-12-02T14:28:19.390Z,2.60
2023-12-02T14:31:06.216Z,2.60
2023-12-02T14:34:07.984Z,2.60
2023-12-02T14:36:59.391Z,2.70
2023-12-02T14:39:47.299Z,2.70
2023-12-02T14:42:40.225Z,2.70
2023-12-02T14:45:09.637Z,2.70
2023-12-02T14:47:40.526Z,2.70
2023-12-02T14:50:09.011Z,2.70
2023-12-02T14:52:37.041Z,2.60
2023-12-02T14:55:04.762Z,2.60
2023-12-02T14:57:32.398Z,2.50
2023-12-02T15:00:01.481Z,2.50
2023-12-02T15:02:46.441Z,2.50
2023-12-02T15:05:15.180Z,2.40
2023-12-02T15:07:56.882Z,2.40
2023-12-02T15:10:33.598Z,2.30
2023-12-02T15:13:07.155Z,2.40
2023-12-02T15:15:44.571Z,2.30
2023-12-02T15:18:19.003Z,2.30
2023-12-02T15:21:19.160Z,2.20
2023-12-02T15:23:47.841Z,2.10
2023-12-02T15:26:18.763Z,2.10
2023-12-02T15:28:49.567Z,2.20
2023-12-02T15:31:17.048Z,2.20
2023-12-02T15:33:52.245Z,2.10
2023-12-02T15:36:19.901Z,2.20
2023-12-02T15:38:50.870Z,2.20
2023-12-02T15:41:18.422Z,2.30
2023-12-02T15:43:45.395Z,2.40
2023-12-02T15:46:12.146Z,2.40
2023-12-02T15:48:39.642Z,2.30
2023-12-02T15:51:07.090Z,2.30
2023-12-02T15:53:35.811Z,2.30
2023-12-02T15:56:03.295Z,2.20
2023-12-02T15:58:32.335Z,2.20
2023-12-02T16:01:03.012Z,2.20
2023-12-02T16:03:30.347Z,2.20
2023-12-02T16:05:57.437Z,2.20
2023-12-02T16:08:25.407Z,2.20
2023-12-02T16:11:02.355Z,2.20
2023-12-02T16:13:30.980Z,2.30
2023-12-02T16:16:05.000Z,2.40
2023-12-02T16:18:31.977Z,2.40
2023-12-02T16:20:58.681Z,2.50
2023-12-02T16:23:25.487Z,2.50
2023-12-02T16:25:52.732Z,2.60
2023-12-02T16:28:19.384Z,2.60
2023-12-02T16:30:52.043Z,2.60
2023-12-02T16:33:19.227Z,2.60
2023-12-02T16:35:45.930Z,2.50
2023-12-02T16:38:16.013Z,2.60
2023-12-02T16:40:51.936Z,2.60
2023-12-02T16:43:19.617Z,2.60
2023-12-02T16:45:46.349Z,2.50
2023-12-02T16:48:15.520Z,2.50
2023-12-02T16:50:46.523Z,2.50
2023-12-02T16:53:18.806Z,2.50
2023-12-02T16:55:50.445Z,2.50
2023-12-02T16:58:17.273Z,2.50
2023-12-02T17:00:45.880Z,2.40
2023-12-02T17:03:38.667Z,2.50
2023-12-02T17:06:10.325Z,2.40
2023-12-02T17:08:39.061Z,2.40
2023-12-02T17:11:14.410Z,2.40
2023-12-02T17:14:03.942Z,2.40
2023-12-02T17:16:30.645Z,2.30
2023-12-02T17:19:03.597Z,2.30
2023-12-02T17:21:43.490Z,2.30
2023-12-02T17:24:20.425Z,2.30
2023-12-02T17:26:48.347Z,2.30
2023-12-02T17:29:17.208Z,2.20
2023-12-02T17:31:43.926Z,2.30
2023-12-02T17:34:10.748Z,2.30
2023-12-02T17:36:37.533Z,2.20
2023-12-02T17:39:04.257Z,2.20
2023-12-02T17:41:30.871Z,2.20
2023-12-02T17:43:57.581Z,2.20
2023-12-02T17:46:25.397Z,2.30
2023-12-02T17:48:52.282Z,2.40
2023-12-02T17:51:20.138Z,2.40
2023-12-02T17:53:46.779Z,2.50
2023-12-02T17:56:13.551Z,2.40
2023-12-02T17:58:40.153Z,2.40
2023-12-02T18:01:07.269Z,2.50
2023-12-02T18:03:33.925Z,2.40
2023-12-02T18:06:00.729Z,2.50
2023-12-02T18:08:27.373Z,2.50
2023-12-02T18:10:54.402Z,2.60
2023-12-02T18:13:21.069Z,2.60
2023-12-02T18:15:48.030Z,2.60
2023-12-02T18:18:15.367Z,2.50
2023-12-02T18:20:44.745Z,2.40
2023-12-02T18:23:11.822Z,2.50
2023-12-02T18:25:38.456Z,2.40
2023-12-02T18:28:05.170Z,2.30
2023-12-02T18:30:32.152Z,2.20
2023-12-02T18:32:58.800Z,2.20
2023-12-02T18:35:25.392Z,2.10
2023-12-02T18:37:52.739Z,2.10
2023-12-02T18:40:22.261Z,2.10
2023-12-02T18:42:49.027Z,2.00
2023-12-02T18:45:15.793Z,2.10
2023-12-02T18:47:42.454Z,2.10
2023-12-02T18:50:09.675Z,2.10
2023-12-02T18:52:36.685Z,2.10
2023-12-02T18:55:03.910Z,2.10
2023-12-02T18:57:30.553Z,2.20
2023-12-02T19:00:06.277Z,2.10
2023-12-02T19:02:33.863Z,2.10
2023-12-02T19:05:01.018Z,2.10
2023-12-02T19:07:28.488Z,2.10
2023-12-02T19:09:55.111Z,2.30
2023-12-02T19:12:21.781Z,2.50
2023-12-02T19:14:48.733Z,2.70
2023-12-02T19:17:15.415Z,2.70
2023-12-02T19:19:42.050Z,2.90
2023-12-02T19:22:09.072Z,3.00
2023-12-02T19:24:35.732Z,3.00
2023-12-02T19:27:02.549Z,3.10
2023-12-02T19:29:29.262Z,3.20
2023-12-02T19:31:55.926Z,3.20
2023-12-02T19:34:22.605Z,3.30
2023-12-02T19:36:49.441Z,3.30
2023-12-02T19:39:16.272Z,3.30
2023-12-02T19:41:46.062Z,3.30
2023-12-02T19:44:13.775Z,3.40
2023-12-02T19:46:41.382Z,3.50
2023-12-02T19:49:08.207Z,3.40
2023-12-02T19:51:34.899Z,3.40
2023-12-02T19:54:02.001Z,3.30
2023-12-02T19:56:29.888Z,3.30
2023-12-02T19:58:56.511Z,3.30
2023-12-02T20:01:23.240Z,3.20
2023-12-02T20:03:50.280Z,3.10
2023-12-02T20:06:17.298Z,3.00
2023-12-02T20:08:43.948Z,3.10
2023-12-02T20:11:10.544Z,3.00
2023-12-02T20:13:37.143Z,2.90
2023-12-02T20:16:04.328Z,2.90
2023-12-02T20:18:31.308Z,3.00
2023-12-02T20:20:58.081Z,3.00
2023-12-02T20:23:24.749Z,3.10
2023-12-02T20:25:51.465Z,3.10
2023-12-02T20:28:18.143Z,3.00
2023-12-02T20:30:44.799Z,3.00
2023-12-02T20:33:12.335Z,3.00
2023-12-02T20:35:39.052Z,3.00
2023-12-02T20:38:05.641Z,3.00
2023-12-02T20:40:32.247Z,2.90
2023-12-02T20:42:58.854Z,2.80
2023-12-02T20:45:25.496Z,2.80
2023-12-02T20:47:52.245Z,2.70
2023-12-02T20:50:18.867Z,2.60
2023-12-02T20:52:45.465Z,2.70
2023-12-02T20:55:12.039Z,2.70
2023-12-02T20:57:38.711Z,2.80
2023-12-02T21:00:06.946Z,2.90
2023-12-02T21:02:33.600Z,3.00
2023-12-02T21:05:00.277Z,3.00
2023-12-02T21:07:26.896Z,2.90
2023-12-02T21:09:58.039Z,2.90
2023-12-02T21:12:26.223Z,3.00
2023-12-02T21:14:53.930Z,3.00
2023-12-02T21:17:20.605Z,3.00
2023-12-02T21:19:47.287Z,3.00
2023-12-02T21:22:13.954Z,3.10
2023-12-02T21:24:45.028Z,3.20
2023-12-02T21:27:12.081Z,3.30
2023-12-02T21:29:38.674Z,3.30
2023-12-02T21:32:05.500Z,3.30
2023-12-02T21:34:32.334Z,3.30
2023-12-02T21:37:04.882Z,3.30
2023-12-02T21:39:33.298Z,3.30
2023-12-02T21:42:00.062Z,3.30
2023-12-02T21:44:26.666Z,3.30
2023-12-02T21:46:55.284Z,3.10
2023-12-02T21:49:22.108Z,3.00
2023-12-02T21:51:53.733Z,2.90
2023-12-02T21:54:22.243Z,2.80
2023-12-02T21:56:50.733Z,2.70
2023-12-02T21:59:22.053Z,2.60
2023-12-02T22:01:54.620Z,2.50
2023-12-02T22:04:25.775Z,2.60
2023-12-02T22:06:56.042Z,2.70
2023-12-02T22:09:28.636Z,2.60
2023-12-02T22:11:56.663Z,2.50
2023-12-02T22:14:24.856Z,2.40
2023-12-02T22:16:57.882Z,2.50
2023-12-02T22:19:25.090Z,2.70
2023-12-02T22:21:53.476Z,2.80
2023-12-02T22:24:20.354Z,2.90
2023-12-02T22:26:47.032Z,3.00
2023-12-02T22:29:27.380Z,3.00
2023-12-02T22:31:55.083Z,3.00
2023-12-02T22:34:22.554Z,3.00
2023-12-02T22:36:50.015Z,3.10
2023-12-02T22:39:21.831Z,3.10
2023-12-02T22:41:55.284Z,3.00
2023-12-02T22:44:23.666Z,3.00
2023-12-02T22:46:58.020Z,3.00
2023-12-02T22:49:28.860Z,3.00
2023-12-02T22:51:58.858Z,3.00
2023-12-02T22:54:37.594Z,2.90
2023-12-02T22:57:05.096Z,2.90
2023-12-02T22:59:31.802Z,2.90
2023-12-02T23:01:58.435Z,2.80
2023-12-02T23:04:40.152Z,2.80
2023-12-02T23:07:15.946Z,2.80
2023-12-02T23:09:48.318Z,2.60
2023-12-02T23:12:32.117Z,2.60
2023-12-02T23:15:02.838Z,2.60
2023-12-02T23:17:31.306Z,2.60
2023-12-02T23:20:03.591Z,2.40
2023-12-02T23:22:30.564Z,2.40
2023-12-02T23:24:58.094Z,2.30
2023-12-02T23:27:44.756Z,2.20
2023-12-02T23:30:22.796Z,2.10
2023-12-02T23:32:50.066Z,1.90
2023-12-02T23:35:29.073Z,1.90
2023-12-02T23:37:55.778Z,2.00
2023-12-02T23:40:29.982Z,2.00
2023-12-02T23:42:58.418Z,1.90
2023-12-02T23:45:25.303Z,1.90
2023-12-02T23:47:53.079Z,2.00
2023-12-02T23:50:20.550Z,2.00
2023-12-02T23:52:48.047Z,2.10
2023-12-02T23:55:15.084Z,2.10
2023-12-02T23:57:43.554Z,2.20
